Etusivu
METAR-TAF:

METAR-TAF

Lentoasemat :

Libreville, Gabon

Leveyspiiri: 00-27N, Pituuspiiri: 009-25E, korkeus merenpinnasta: 12 m

Tämänhetkinen sää

Tämä raportti tehtiin 25 minuuttia sitten, kello 21.00 UTC
Tuuli 7 kn lounaasta, vaihdellen etelän ja lännen/lounaan välillä
Lämpötila 25°C
Kosteus 83%
Ilmanpaine 1013 hPa
Näkyvyys: 9000 m
Muutamia pilviä 1000 ft:n korkeudessa

METAR: FOOL 172100Z 22007KT 190V250 9000 FEW010 25/22 Q1013 NOSIG

Aika: 22:25 (21:25 UTC)

Sääennuste

Tämä raportti tehtiin 4 tuntia ja 25 minuuttia sitten, kello 17.00 UTC
Ennuste voimassa 17. päivästä klo 18 UTC - 18. päivään klo 24 UTC
Tuuli 7 kn etelästä/lounaasta
Näkyvyys: 8000 m
Hajanaisia pilviä 600 ft:n korkeudessa
Pilvistä 2500 ft:n korkeudessa

TAF: FOOL 171700Z 1718/1824 21007KT 8000 SCT006 OVC025

Säähavainnot ja -ennusteet yli 4000 lentoasemalta (METAR- ja TAF-raportit).

Käytössä olevat sääasemat on merkitty karttaan keltaisilla ja punaisilla pisteillä.

Aseta hiiri pisteen päälle nähdäksesi sääaseman nimen.

Klikkaa sitten nähdäksesi säähavainnot ja -ennusteet.

Kartan vaihtaminen: klikkaa mustalla rastilla varustettuja vihreitä pisteitä, niin voit zoomata sisään; viivalla varustettua vihreää pistettä, niin voit zoomata ulos tai vihreitä nuolia, niin pääset viereisille kartoille.


METAR-TAF: